Jersey Shore, PA

9:56 PM EST on February 11, 2016 (GMT -0500)
Jersey Shore, Porter Township | | Change Station
CLOSE
Current Station
Personal Weather Station
Location: Jersey Shore, PA
Elevation: 581 ft
Nearby Weather Stations

Elev 581 ft 41.19 °N, 77.26 °W | Updated 13 minutes ago

Mostly Cloudy
Mostly Cloudy
15.1 °F
Feels Like 8 °F
N
4.2
Wind Variable Wind from West

Today
High -- | Low -- °F
--% Chance of Precip.
Yesterday
High -- | Low -- °F
Precip. -- in
Pressure 30.22 in
Visibility 9.0 miles
Clouds Few 4700 ft
Overcast 6000 ft
Windchill 8 °F
Dew Point 2 °F
Humidity 54%
Rainfall 0.00 in
Snow Depth Not available.
7:09 AM 5:37 PM
Waxing Crescent, 16% visible
METAR KIPT 120154Z 32009KT 9SM -SN FEW047 OVC060 M08/M13 A3019 RMK AO2 SLP232 P0000 T10831128 $
Pressure 30.22 in
Visibility 9.0 miles
Clouds Few 4700 ft
Overcast 6000 ft
Windchill 8 °F
Dew Point 2 °F
Humidity 54%
Rainfall 0.00 in
Snow Depth Not available.
7:09 AM 5:37 PM
Waxing Crescent, 16% visible
METAR KIPT 120154Z 32009KT 9SM -SN FEW047 OVC060 M08/M13 A3019 RMK AO2 SLP232 P0000 T10831128 $

10-Day Weather Forecast

Almanac

Astronomy

Feb. 11, 2016 Rise Set
Actual Time
Civil Twilight
Nautical Twilight
Astronomical Twilight
Moon
Length of Visible Light
Length of Day
Tomorrow will be .
, % of the Moon is Illuminated

Today's Extremes

State Highs State Lows

Community

WunderPhotos

Upload Photos

1,892,226 photos uploaded!

WunderBlog® & News

Nearby

Air Quality

  Air Quality AQ Index Pollutant
Not available.

Snow Depth

Station Depth Elevation

Earthquake Activity

City Distance Mag. Time & Date
Minimum magnitude displayed is 2.5.

Coastal Water Temperatures

Place Temperature

Stations

Nearby Weather Stations

Station Location Temp. Windchill Dew Point Humidity Wind Precip. Elev Updated Type
                   

Watches & Warnings

There are currently no watches in effect.